sensor_id;sensor_type;location;lat;lon;timestamp;P1;durP1;ratioP1;P2;durP2;ratioP2
83423;SDS011;73355;49.044;8.686;2024-03-23T00:55:50;5.70;;;3.03;;
83423;SDS011;73355;49.044;8.686;2024-03-23T00:58:16;5.47;;;3.75;;
83423;SDS011;73355;49.044;8.686;2024-03-23T01:00:42;7.70;;;3.15;;
83423;SDS011;73355;49.044;8.686;2024-03-23T01:03:08;8.68;;;3.03;;
83423;SDS011;73355;49.044;8.686;2024-03-23T01:05:33;5.75;;;3.30;;
83423;SDS011;73355;49.044;8.686;2024-03-23T01:08:02;5.05;;;3.30;;
83423;SDS011;73355;49.044;8.686;2024-03-23T01:10:27;7.32;;;3.30;;
83423;SDS011;73355;49.044;8.686;2024-03-23T01:12:53;5.07;;;3.25;;
83423;SDS011;73355;49.044;8.686;2024-03-23T01:15:18;7.03;;;3.70;;
83423;SDS011;73355;49.044;8.686;2024-03-23T01:17:50;5.43;;;3.28;;
83423;SDS011;73355;49.044;8.686;2024-03-23T01:20:15;6.82;;;3.45;;
83423;SDS011;73355;49.044;8.686;2024-03-23T01:22:41;5.93;;;3.22;;
83423;SDS011;73355;49.044;8.686;2024-03-23T01:25:07;10.15;;;4.20;;
83423;SDS011;73355;49.044;8.686;2024-03-23T01:27:32;5.50;;;3.30;;
83423;SDS011;73355;49.044;8.686;2024-03-23T01:29:59;6.20;;;3.60;;
83423;SDS011;73355;49.044;8.686;2024-03-23T01:32:24;4.53;;;2.97;;
83423;SDS011;73355;49.044;8.686;2024-03-23T01:34:49;8.88;;;3.50;;
83423;SDS011;73355;49.044;8.686;2024-03-23T01:37:17;5.82;;;3.22;;
83423;SDS011;73355;49.044;8.686;2024-03-23T01:39:43;7.05;;;3.33;;
83423;SDS011;73355;49.044;8.686;2024-03-23T01:42:08;6.53;;;2.88;;
83423;SDS011;73355;49.044;8.686;2024-03-23T01:44:33;4.83;;;3.20;;
83423;SDS011;73355;49.044;8.686;2024-03-23T01:46:59;5.13;;;3.50;;
83423;SDS011;73355;49.044;8.686;2024-03-23T01:49:24;5.35;;;2.97;;
83423;SDS011;73355;49.044;8.686;2024-03-23T01:51:52;5.05;;;2.97;;
83423;SDS011;73355;49.044;8.686;2024-03-23T01:54:20;8.77;;;3.88;;
83423;SDS011;73355;49.044;8.686;2024-03-23T01:56:48;6.25;;;3.72;;
83423;SDS011;73355;49.044;8.686;2024-03-23T02:01:39;6.45;;;3.38;;
83423;SDS011;73355;49.044;8.686;2024-03-23T02:04:05;4.45;;;2.92;;
83423;SDS011;73355;49.044;8.686;2024-03-23T02:06:30;7.70;;;3.10;;
83423;SDS011;73355;49.044;8.686;2024-03-23T02:08:56;5.38;;;3.45;;
83423;SDS011;73355;49.044;8.686;2024-03-23T02:11:28;4.45;;;3.13;;
83423;SDS011;73355;49.044;8.686;2024-03-23T02:13:53;5.78;;;3.17;;
83423;SDS011;73355;49.044;8.686;2024-03-23T02:16:19;6.63;;;3.07;;
83423;SDS011;73355;49.044;8.686;2024-03-23T02:18:44;5.88;;;3.50;;
83423;SDS011;73355;49.044;8.686;2024-03-23T02:21:48;5.88;;;3.58;;
83423;SDS011;73355;49.044;8.686;2024-03-23T02:24:14;4.68;;;2.97;;
83423;SDS011;73355;49.044;8.686;2024-03-23T02:26:39;4.87;;;3.10;;
83423;SDS011;73355;49.044;8.686;2024-03-23T02:29:04;4.17;;;2.87;;
83423;SDS011;73355;49.044;8.686;2024-03-23T02:31:30;4.43;;;3.10;;
83423;SDS011;73355;49.044;8.686;2024-03-23T02:33:55;5.90;;;3.72;;
83423;SDS011;73355;49.044;8.686;2024-03-23T02:36:24;4.78;;;2.80;;
83423;SDS011;73355;49.044;8.686;2024-03-23T02:38:49;5.35;;;2.78;;
83423;SDS011;73355;49.044;8.686;2024-03-23T02:41:14;4.45;;;2.58;;
83423;SDS011;73355;49.044;8.686;2024-03-23T02:43:40;4.90;;;2.17;;
83423;SDS011;73355;49.044;8.686;2024-03-23T02:46:06;4.07;;;2.30;;
83423;SDS011;73355;49.044;8.686;2024-03-23T02:48:31;3.38;;;1.88;;
83423;SDS011;73355;49.044;8.686;2024-03-23T02:50:57;3.77;;;1.87;;
83423;SDS011;73355;49.044;8.686;2024-03-23T02:53:22;3.33;;;1.80;;
83423;SDS011;73355;49.044;8.686;2024-03-23T02:55:47;3.10;;;1.60;;
83423;SDS011;73355;49.044;8.686;2024-03-23T02:58:15;4.53;;;1.90;;
83423;SDS011;73355;49.044;8.686;2024-03-23T03:00:51;4.18;;;1.95;;
83423;SDS011;73355;49.044;8.686;2024-03-23T03:03:16;5.00;;;2.25;;
83423;SDS011;73355;49.044;8.686;2024-03-23T03:05:42;2.95;;;2.20;;
83423;SDS011;73355;49.044;8.686;2024-03-23T03:08:07;5.05;;;2.05;;
83423;SDS011;73355;49.044;8.686;2024-03-23T03:10:33;3.28;;;1.95;;
83423;SDS011;73355;49.044;8.686;2024-03-23T03:13:00;3.60;;;1.88;;
83423;SDS011;73355;49.044;8.686;2024-03-23T03:15:25;6.18;;;2.38;;
83423;SDS011;73355;49.044;8.686;2024-03-23T03:17:51;3.90;;;2.05;;
83423;SDS011;73355;49.044;8.686;2024-03-23T03:20:16;3.90;;;2.20;;
83423;SDS011;73355;49.044;8.686;2024-03-23T03:25:08;4.07;;;1.87;;
83423;SDS011;73355;49.044;8.686;2024-03-23T03:30:09;10.70;;;2.38;;
83423;SDS011;73355;49.044;8.686;2024-03-23T03:32:35;5.78;;;2.95;;
83423;SDS011;73355;49.044;8.686;2024-03-23T03:35:00;4.85;;;2.75;;
83423;SDS011;73355;49.044;8.686;2024-03-23T03:37:29;5.28;;;2.63;;
83423;SDS011;73355;49.044;8.686;2024-03-23T03:39:55;5.35;;;3.15;;
83423;SDS011;73355;49.044;8.686;2024-03-23T03:42:20;5.57;;;3.15;;
83423;SDS011;73355;49.044;8.686;2024-03-23T03:44:46;5.45;;;2.53;;
83423;SDS011;73355;49.044;8.686;2024-03-23T03:47:11;6.80;;;3.35;;
83423;SDS011;73355;49.044;8.686;2024-03-23T03:49:37;5.80;;;3.28;;
83423;SDS011;73355;49.044;8.686;2024-03-23T03:52:03;5.35;;;3.40;;
83423;SDS011;73355;49.044;8.686;2024-03-23T03:54:28;6.97;;;3.55;;
83423;SDS011;73355;49.044;8.686;2024-03-23T03:56:54;5.93;;;3.13;;
83423;SDS011;73355;49.044;8.686;2024-03-23T03:59:19;5.18;;;2.60;;
83423;SDS011;73355;49.044;8.686;2024-03-23T04:01:45;11.93;;;3.92;;
83423;SDS011;73355;49.044;8.686;2024-03-23T04:04:11;5.97;;;3.50;;
83423;SDS011;73355;49.044;8.686;2024-03-23T04:06:36;6.38;;;3.55;;
83423;SDS011;73355;49.044;8.686;2024-03-23T04:09:02;9.05;;;3.80;;
83423;SDS011;73355;49.044;8.686;2024-03-23T04:11:27;6.35;;;3.20;;
83423;SDS011;73355;49.044;8.686;2024-03-23T04:13:53;5.88;;;3.33;;
83423;SDS011;73355;49.044;8.686;2024-03-23T04:16:26;6.55;;;3.25;;
83423;SDS011;73355;49.044;8.686;2024-03-23T04:18:55;5.35;;;3.25;;
83423;SDS011;73355;49.044;8.686;2024-03-23T04:21:23;6.97;;;3.90;;
83423;SDS011;73355;49.044;8.686;2024-03-23T04:23:49;8.57;;;4.00;;
83423;SDS011;73355;49.044;8.686;2024-03-23T04:26:14;5.32;;;3.20;;
83423;SDS011;73355;49.044;8.686;2024-03-23T04:28:40;6.18;;;3.70;;
83423;SDS011;73355;49.044;8.686;2024-03-23T04:31:06;6.90;;;3.90;;
83423;SDS011;73355;49.044;8.686;2024-03-23T04:33:44;7.53;;;3.55;;
83423;SDS011;73355;49.044;8.686;2024-03-23T04:36:09;8.10;;;3.58;;
83423;SDS011;73355;49.044;8.686;2024-03-23T04:38:35;8.63;;;4.28;;
83423;SDS011;73355;49.044;8.686;2024-03-23T04:41:01;9.80;;;4.28;;
83423;SDS011;73355;49.044;8.686;2024-03-23T04:43:26;10.82;;;4.90;;
83423;SDS011;73355;49.044;8.686;2024-03-23T04:45:52;9.60;;;4.03;;
83423;SDS011;73355;49.044;8.686;2024-03-23T04:48:20;8.00;;;4.32;;
83423;SDS011;73355;49.044;8.686;2024-03-23T04:50:47;9.75;;;4.57;;
83423;SDS011;73355;49.044;8.686;2024-03-23T04:53:13;10.02;;;4.85;;
83423;SDS011;73355;49.044;8.686;2024-03-23T04:55:38;9.52;;;4.55;;
83423;SDS011;73355;49.044;8.686;2024-03-23T04:58:14;7.38;;;3.80;;
83423;SDS011;73355;49.044;8.686;2024-03-23T05:00:42;7.88;;;4.20;;
83423;SDS011;73355;49.044;8.686;2024-03-23T05:03:07;6.00;;;2.58;;
83423;SDS011;73355;49.044;8.686;2024-03-23T05:05:33;9.60;;;4.03;;
83423;SDS011;73355;49.044;8.686;2024-03-23T05:08:01;5.18;;;2.97;;
83423;SDS011;73355;49.044;8.686;2024-03-23T05:10:26;7.53;;;3.53;;
83423;SDS011;73355;49.044;8.686;2024-03-23T05:12:52;6.50;;;3.20;;
83423;SDS011;73355;49.044;8.686;2024-03-23T05:15:18;8.55;;;3.70;;
83423;SDS011;73355;49.044;8.686;2024-03-23T05:17:43;8.48;;;3.63;;
83423;SDS011;73355;49.044;8.686;2024-03-23T05:20:09;6.78;;;3.63;;
83423;SDS011;73355;49.044;8.686;2024-03-23T05:22:37;6.30;;;2.97;;
83423;SDS011;73355;49.044;8.686;2024-03-23T05:25:04;9.35;;;3.72;;
83423;SDS011;73355;49.044;8.686;2024-03-23T05:27:31;6.60;;;3.15;;
83423;SDS011;73355;49.044;8.686;2024-03-23T05:29:59;6.15;;;2.90;;
83423;SDS011;73355;49.044;8.686;2024-03-23T05:32:25;4.40;;;2.40;;
83423;SDS011;73355;49.044;8.686;2024-03-23T05:34:50;7.38;;;3.10;;
83423;SDS011;73355;49.044;8.686;2024-03-23T05:37:20;3.80;;;2.28;;
83423;SDS011;73355;49.044;8.686;2024-03-23T05:39:46;3.70;;;1.80;;
83423;SDS011;73355;49.044;8.686;2024-03-23T05:42:13;3.58;;;1.40;;
83423;SDS011;73355;49.044;8.686;2024-03-23T05:44:39;1.77;;;0.88;;
83423;SDS011;73355;49.044;8.686;2024-03-23T05:47:05;1.23;;;0.55;;
83423;SDS011;73355;49.044;8.686;2024-03-23T05:49:30;0.65;;;0.40;;
83423;SDS011;73355;49.044;8.686;2024-03-23T05:51:56;1.50;;;0.77;;
83423;SDS011;73355;49.044;8.686;2024-03-23T05:54:21;2.17;;;0.50;;
83423;SDS011;73355;49.044;8.686;2024-03-23T05:56:49;0.73;;;0.43;;
83423;SDS011;73355;49.044;8.686;2024-03-23T05:59:21;1.48;;;0.75;;
83423;SDS011;73355;49.044;8.686;2024-03-23T06:01:47;1.30;;;0.80;;
83423;SDS011;73355;49.044;8.686;2024-03-23T06:04:12;0.77;;;0.40;;
83423;SDS011;73355;49.044;8.686;2024-03-23T06:06:41;0.73;;;0.45;;
83423;SDS011;73355;49.044;8.686;2024-03-23T06:09:06;0.80;;;0.57;;
83423;SDS011;73355;49.044;8.686;2024-03-23T06:11:34;1.33;;;0.73;;
83423;SDS011;73355;49.044;8.686;2024-03-23T06:14:00;0.40;;;0.30;;
83423;SDS011;73355;49.044;8.686;2024-03-23T06:16:25;2.00;;;0.60;;
83423;SDS011;73355;49.044;8.686;2024-03-23T06:18:52;0.85;;;0.47;;
83423;SDS011;73355;49.044;8.686;2024-03-23T06:21:21;0.80;;;0.40;;
83423;SDS011;73355;49.044;8.686;2024-03-23T06:23:50;0.50;;;0.30;;
83423;SDS011;73355;49.044;8.686;2024-03-23T06:26:19;0.60;;;0.38;;
83423;SDS011;73355;49.044;8.686;2024-03-23T06:28:45;1.38;;;0.55;;
83423;SDS011;73355;49.044;8.686;2024-03-23T06:31:11;1.00;;;0.60;;
83423;SDS011;73355;49.044;8.686;2024-03-23T06:33:37;0.73;;;0.60;;
83423;SDS011;73355;49.044;8.686;2024-03-23T06:36:03;0.93;;;0.50;;
83423;SDS011;73355;49.044;8.686;2024-03-23T06:38:33;0.90;;;0.60;;
83423;SDS011;73355;49.044;8.686;2024-03-23T06:40:59;0.32;;;0.22;;
83423;SDS011;73355;49.044;8.686;2024-03-23T06:43:27;0.30;;;0.20;;
83423;SDS011;73355;49.044;8.686;2024-03-23T06:45:53;0.57;;;0.35;;
83423;SDS011;73355;49.044;8.686;2024-03-23T06:48:19;0.35;;;0.25;;
83423;SDS011;73355;49.044;8.686;2024-03-23T06:50:48;0.63;;;0.22;;
83423;SDS011;73355;49.044;8.686;2024-03-23T06:53:14;0.35;;;0.20;;
83423;SDS011;73355;49.044;8.686;2024-03-23T06:55:40;0.43;;;0.40;;
83423;SDS011;73355;49.044;8.686;2024-03-23T06:58:05;0.38;;;0.25;;
83423;SDS011;73355;49.044;8.686;2024-03-23T07:00:32;0.98;;;0.40;;
83423;SDS011;73355;49.044;8.686;2024-03-23T07:02:57;0.50;;;0.30;;
83423;SDS011;73355;49.044;8.686;2024-03-23T07:05:23;1.95;;;0.52;;
83423;SDS011;73355;49.044;8.686;2024-03-23T07:07:48;0.43;;;0.30;;
83423;SDS011;73355;49.044;8.686;2024-03-23T07:10:14;0.57;;;0.30;;
83423;SDS011;73355;49.044;8.686;2024-03-23T07:12:39;1.58;;;0.28;;
83423;SDS011;73355;49.044;8.686;2024-03-23T07:15:05;0.43;;;0.20;;
83423;SDS011;73355;49.044;8.686;2024-03-23T07:17:31;0.30;;;0.25;;
83423;SDS011;73355;49.044;8.686;2024-03-23T07:20:02;0.75;;;0.50;;
83423;SDS011;73355;49.044;8.686;2024-03-23T07:22:35;0.47;;;0.35;;
83423;SDS011;73355;49.044;8.686;2024-03-23T07:25:01;0.70;;;0.40;;
83423;SDS011;73355;49.044;8.686;2024-03-23T07:27:30;0.52;;;0.43;;
83423;SDS011;73355;49.044;8.686;2024-03-23T07:30:06;0.90;;;0.50;;
83423;SDS011;73355;49.044;8.686;2024-03-23T07:32:31;0.73;;;0.40;;
83423;SDS011;73355;49.044;8.686;2024-03-23T07:34:57;0.30;;;0.20;;
83423;SDS011;73355;49.044;8.686;2024-03-23T07:37:22;1.40;;;0.40;;
83423;SDS011;73355;49.044;8.686;2024-03-23T07:39:47;0.50;;;0.17;;
83423;SDS011;73355;49.044;8.686;2024-03-23T07:42:13;0.40;;;0.20;;
83423;SDS011;73355;49.044;8.686;2024-03-23T07:44:41;0.10;;;0.10;;
83423;SDS011;73355;49.044;8.686;2024-03-23T07:47:07;0.07;;;0.07;;
83423;SDS011;73355;49.044;8.686;2024-03-23T07:49:32;1.13;;;0.20;;
83423;SDS011;73355;49.044;8.686;2024-03-23T07:51:57;0.20;;;0.10;;
83423;SDS011;73355;49.044;8.686;2024-03-23T07:54:25;0.10;;;0.10;;
83423;SDS011;73355;49.044;8.686;2024-03-23T07:56:51;0.10;;;0.10;;
83423;SDS011;73355;49.044;8.686;2024-03-23T07:59:16;0.10;;;0.10;;
83423;SDS011;73355;49.044;8.686;2024-03-23T08:01:41;0.28;;;0.10;;
83423;SDS011;73355;49.044;8.686;2024-03-23T08:04:06;0.20;;;0.10;;
83423;SDS011;73355;49.044;8.686;2024-03-23T08:06:52;0.63;;;0.13;;
83423;SDS011;73355;49.044;8.686;2024-03-23T08:09:17;0.73;;;0.30;;
83423;SDS011;73355;49.044;8.686;2024-03-23T08:11:43;0.32;;;0.20;;
83423;SDS011;73355;49.044;8.686;2024-03-23T08:14:10;0.32;;;0.00;;
83423;SDS011;73355;49.044;8.686;2024-03-23T08:16:36;0.93;;;0.50;;
83423;SDS011;73355;49.044;8.686;2024-03-23T08:19:01;1.43;;;0.60;;
83423;SDS011;73355;49.044;8.686;2024-03-23T08:21:28;0.20;;;0.17;;
83423;SDS011;73355;49.044;8.686;2024-03-23T08:23:54;4.47;;;0.60;;
83423;SDS011;73355;49.044;8.686;2024-03-23T08:26:19;1.00;;;0.40;;
83423;SDS011;73355;49.044;8.686;2024-03-23T08:28:44;2.00;;;0.60;;
83423;SDS011;73355;49.044;8.686;2024-03-23T08:31:11;0.95;;;0.47;;
83423;SDS011;73355;49.044;8.686;2024-03-23T08:33:38;3.08;;;0.55;;
83423;SDS011;73355;49.044;8.686;2024-03-23T08:38:34;2.70;;;0.60;;
83423;SDS011;73355;49.044;8.686;2024-03-23T08:41:06;1.67;;;0.80;;
83423;SDS011;73355;49.044;8.686;2024-03-23T08:43:33;1.98;;;0.60;;
83423;SDS011;73355;49.044;8.686;2024-03-23T08:46:04;2.58;;;0.90;;
83423;SDS011;73355;49.044;8.686;2024-03-23T08:51:03;3.47;;;1.02;;
83423;SDS011;73355;49.044;8.686;2024-03-23T08:53:29;3.72;;;1.27;;
83423;SDS011;73355;49.044;8.686;2024-03-23T08:55:55;5.47;;;1.50;;
83423;SDS011;73355;49.044;8.686;2024-03-23T08:58:23;2.28;;;1.10;;
83423;SDS011;73355;49.044;8.686;2024-03-23T09:00:49;3.10;;;1.10;;
83423;SDS011;73355;49.044;8.686;2024-03-23T09:03:19;1.40;;;0.90;;
83423;SDS011;73355;49.044;8.686;2024-03-23T09:05:47;2.65;;;1.15;;
83423;SDS011;73355;49.044;8.686;2024-03-23T09:08:13;4.47;;;1.10;;
83423;SDS011;73355;49.044;8.686;2024-03-23T09:10:38;3.80;;;1.13;;
83423;SDS011;73355;49.044;8.686;2024-03-23T09:13:04;2.42;;;1.00;;
83423;SDS011;73355;49.044;8.686;2024-03-23T09:15:30;2.90;;;0.80;;
83423;SDS011;73355;49.044;8.686;2024-03-23T09:18:05;3.70;;;1.35;;
83423;SDS011;73355;49.044;8.686;2024-03-23T09:20:33;2.25;;;1.05;;
83423;SDS011;73355;49.044;8.686;2024-03-23T09:22:58;1.85;;;1.00;;
83423;SDS011;73355;49.044;8.686;2024-03-23T09:25:24;2.70;;;1.20;;
83423;SDS011;73355;49.044;8.686;2024-03-23T09:27:50;5.00;;;1.20;;
83423;SDS011;73355;49.044;8.686;2024-03-23T09:30:16;2.92;;;0.90;;
83423;SDS011;73355;49.044;8.686;2024-03-23T09:33:02;1.90;;;0.90;;
83423;SDS011;73355;49.044;8.686;2024-03-23T09:35:28;1.83;;;0.70;;
83423;SDS011;73355;49.044;8.686;2024-03-23T09:37:53;2.78;;;0.98;;
83423;SDS011;73355;49.044;8.686;2024-03-23T09:40:18;4.57;;;1.00;;
83423;SDS011;73355;49.044;8.686;2024-03-23T09:42:49;5.40;;;1.30;;
83423;SDS011;73355;49.044;8.686;2024-03-23T09:45:20;2.50;;;0.93;;
83423;SDS011;73355;49.044;8.686;2024-03-23T09:47:51;4.38;;;1.38;;
83423;SDS011;73355;49.044;8.686;2024-03-23T09:50:16;3.83;;;1.15;;
83423;SDS011;73355;49.044;8.686;2024-03-23T09:52:42;2.85;;;1.20;;
83423;SDS011;73355;49.044;8.686;2024-03-23T09:55:16;4.55;;;1.10;;
83423;SDS011;73355;49.044;8.686;2024-03-23T09:57:41;5.97;;;1.25;;
83423;SDS011;73355;49.044;8.686;2024-03-23T10:00:07;3.78;;;1.23;;
83423;SDS011;73355;49.044;8.686;2024-03-23T10:02:34;6.72;;;1.30;;
83423;SDS011;73355;49.044;8.686;2024-03-23T10:05:00;4.15;;;1.63;;
83423;SDS011;73355;49.044;8.686;2024-03-23T10:07:25;2.15;;;1.15;;
83423;SDS011;73355;49.044;8.686;2024-03-23T10:09:53;5.00;;;1.85;;
83423;SDS011;73355;49.044;8.686;2024-03-23T10:12:18;5.20;;;1.70;;
83423;SDS011;73355;49.044;8.686;2024-03-23T10:14:44;3.45;;;1.73;;
83423;SDS011;73355;49.044;8.686;2024-03-23T10:17:20;2.85;;;1.20;;
83423;SDS011;73355;49.044;8.686;2024-03-23T10:19:50;4.55;;;1.20;;
83423;SDS011;73355;49.044;8.686;2024-03-23T10:22:20;3.25;;;1.10;;
83423;SDS011;73355;49.044;8.686;2024-03-23T10:24:46;4.78;;;1.52;;
83423;SDS011;73355;49.044;8.686;2024-03-23T10:27:15;7.85;;;1.58;;
83423;SDS011;73355;49.044;8.686;2024-03-23T10:29:42;6.25;;;1.33;;
83423;SDS011;73355;49.044;8.686;2024-03-23T10:32:09;3.90;;;1.63;;
83423;SDS011;73355;49.044;8.686;2024-03-23T10:34:38;4.88;;;1.35;;
83423;SDS011;73355;49.044;8.686;2024-03-23T10:37:04;7.55;;;1.52;;
83423;SDS011;73355;49.044;8.686;2024-03-23T10:42:01;4.78;;;1.67;;
83423;SDS011;73355;49.044;8.686;2024-03-23T10:44:30;5.18;;;1.40;;
83423;SDS011;73355;49.044;8.686;2024-03-23T10:47:02;3.92;;;1.52;;
83423;SDS011;73355;49.044;8.686;2024-03-23T10:49:29;6.93;;;2.28;;
83423;SDS011;73355;49.044;8.686;2024-03-23T10:51:56;5.65;;;1.83;;
83423;SDS011;73355;49.044;8.686;2024-03-23T10:54:23;3.17;;;1.80;;
83423;SDS011;73355;49.044;8.686;2024-03-23T10:56:49;4.75;;;1.98;;
83423;SDS011;73355;49.044;8.686;2024-03-23T10:59:36;5.47;;;1.80;;
83423;SDS011;73355;49.044;8.686;2024-03-23T11:02:03;4.13;;;1.42;;
83423;SDS011;73355;49.044;8.686;2024-03-23T11:04:29;4.53;;;1.40;;
83423;SDS011;73355;49.044;8.686;2024-03-23T11:06:56;6.35;;;2.17;;
83423;SDS011;73355;49.044;8.686;2024-03-23T11:09:42;2.25;;;1.00;;
83423;SDS011;73355;49.044;8.686;2024-03-23T11:14:57;6.25;;;1.30;;
83423;SDS011;73355;49.044;8.686;2024-03-23T11:17:31;5.70;;;1.48;;
83423;SDS011;73355;49.044;8.686;2024-03-23T11:20:01;4.00;;;1.20;;
83423;SDS011;73355;49.044;8.686;2024-03-23T11:25:02;3.75;;;1.30;;
83423;SDS011;73355;49.044;8.686;2024-03-23T11:27:32;6.68;;;1.58;;
83423;SDS011;73355;49.044;8.686;2024-03-23T11:30:14;4.30;;;1.33;;
83423;SDS011;73355;49.044;8.686;2024-03-23T11:32:44;2.65;;;1.25;;
83423;SDS011;73355;49.044;8.686;2024-03-23T11:35:10;3.10;;;1.42;;
83423;SDS011;73355;49.044;8.686;2024-03-23T11:37:45;3.30;;;1.13;;
83423;SDS011;73355;49.044;8.686;2024-03-23T11:40:18;5.85;;;1.40;;
83423;SDS011;73355;49.044;8.686;2024-03-23T11:42:44;2.97;;;0.93;;
83423;SDS011;73355;49.044;8.686;2024-03-23T11:45:09;2.93;;;1.00;;
83423;SDS011;73355;49.044;8.686;2024-03-23T11:47:35;2.72;;;1.27;;
83423;SDS011;73355;49.044;8.686;2024-03-23T11:50:11;3.17;;;1.30;;
83423;SDS011;73355;49.044;8.686;2024-03-23T11:52:44;4.70;;;1.25;;
83423;SDS011;73355;49.044;8.686;2024-03-23T11:55:09;2.20;;;0.90;;
83423;SDS011;73355;49.044;8.686;2024-03-23T11:57:34;3.07;;;1.13;;
83423;SDS011;73355;49.044;8.686;2024-03-23T12:00:00;2.33;;;1.13;;
83423;SDS011;73355;49.044;8.686;2024-03-23T12:02:28;4.57;;;1.13;;
83423;SDS011;73355;49.044;8.686;2024-03-23T12:04:56;2.75;;;0.98;;
83423;SDS011;73355;49.044;8.686;2024-03-23T12:07:22;2.80;;;1.03;;
83423;SDS011;73355;49.044;8.686;2024-03-23T12:09:49;3.13;;;1.20;;
83423;SDS011;73355;49.044;8.686;2024-03-23T12:12:34;5.07;;;1.38;;
83423;SDS011;73355;49.044;8.686;2024-03-23T12:15:09;3.38;;;1.50;;
83423;SDS011;73355;49.044;8.686;2024-03-23T12:17:34;3.72;;;1.38;;
83423;SDS011;73355;49.044;8.686;2024-03-23T12:20:00;2.83;;;1.02;;
83423;SDS011;73355;49.044;8.686;2024-03-23T12:22:26;5.60;;;1.40;;
83423;SDS011;73355;49.044;8.686;2024-03-23T12:24:52;4.35;;;1.75;;
83423;SDS011;73355;49.044;8.686;2024-03-23T12:27:35;3.58;;;1.17;;
83423;SDS011;73355;49.044;8.686;2024-03-23T12:30:01;2.83;;;1.03;;
83423;SDS011;73355;49.044;8.686;2024-03-23T12:32:27;5.80;;;1.58;;
83423;SDS011;73355;49.044;8.686;2024-03-23T12:34:52;5.80;;;1.30;;
83423;SDS011;73355;49.044;8.686;2024-03-23T12:37:26;3.03;;;1.10;;
83423;SDS011;73355;49.044;8.686;2024-03-23T12:39:51;3.47;;;1.08;;
83423;SDS011;73355;49.044;8.686;2024-03-23T12:42:17;4.00;;;1.10;;
83423;SDS011;73355;49.044;8.686;2024-03-23T12:44:42;4.23;;;1.30;;
83423;SDS011;73355;49.044;8.686;2024-03-23T12:47:07;5.63;;;1.10;;
83423;SDS011;73355;49.044;8.686;2024-03-23T12:49:32;2.67;;;0.90;;
83423;SDS011;73355;49.044;8.686;2024-03-23T12:52:03;4.13;;;1.00;;
83423;SDS011;73355;49.044;8.686;2024-03-23T12:54:29;3.10;;;1.05;;
83423;SDS011;73355;49.044;8.686;2024-03-23T12:56:56;4.72;;;0.90;;
83423;SDS011;73355;49.044;8.686;2024-03-23T12:59:21;5.30;;;1.23;;
83423;SDS011;73355;49.044;8.686;2024-03-23T13:01:47;4.40;;;0.80;;
83423;SDS011;73355;49.044;8.686;2024-03-23T13:04:12;6.17;;;1.10;;
83423;SDS011;73355;49.044;8.686;2024-03-23T13:06:43;3.00;;;0.70;;
83423;SDS011;73355;49.044;8.686;2024-03-23T13:09:08;3.05;;;0.88;;
83423;SDS011;73355;49.044;8.686;2024-03-23T13:11:34;6.27;;;0.93;;
83423;SDS011;73355;49.044;8.686;2024-03-23T13:13:59;3.30;;;1.00;;
83423;SDS011;73355;49.044;8.686;2024-03-23T13:16:24;1.23;;;0.53;;
83423;SDS011;73355;49.044;8.686;2024-03-23T13:18:50;0.87;;;0.30;;
83423;SDS011;73355;49.044;8.686;2024-03-23T13:21:15;0.57;;;0.20;;
83423;SDS011;73355;49.044;8.686;2024-03-23T13:23:50;1.63;;;0.30;;
83423;SDS011;73355;49.044;8.686;2024-03-23T13:26:16;1.67;;;0.63;;
83423;SDS011;73355;49.044;8.686;2024-03-23T13:28:41;1.30;;;0.50;;
83423;SDS011;73355;49.044;8.686;2024-03-23T13:31:06;0.60;;;0.30;;
83423;SDS011;73355;49.044;8.686;2024-03-23T13:33:33;1.38;;;0.80;;
83423;SDS011;73355;49.044;8.686;2024-03-23T13:36:01;2.47;;;0.55;;
83423;SDS011;73355;49.044;8.686;2024-03-23T13:38:28;1.85;;;0.38;;
83423;SDS011;73355;49.044;8.686;2024-03-23T13:40:54;2.87;;;0.30;;
83423;SDS011;73355;49.044;8.686;2024-03-23T13:43:20;0.10;;;0.10;;
83423;SDS011;73355;49.044;8.686;2024-03-23T13:45:49;0.50;;;0.28;;
83423;SDS011;73355;49.044;8.686;2024-03-23T13:48:25;2.47;;;0.40;;
83423;SDS011;73355;49.044;8.686;2024-03-23T13:50:58;0.82;;;0.17;;
83423;SDS011;73355;49.044;8.686;2024-03-23T13:53:23;1.48;;;0.30;;
83423;SDS011;73355;49.044;8.686;2024-03-23T13:55:49;1.33;;;0.50;;
83423;SDS011;73355;49.044;8.686;2024-03-23T13:58:14;1.60;;;0.20;;
83423;SDS011;73355;49.044;8.686;2024-03-23T14:00:49;2.72;;;0.70;;
83423;SDS011;73355;49.044;8.686;2024-03-23T14:03:14;1.45;;;0.50;;
83423;SDS011;73355;49.044;8.686;2024-03-23T14:05:40;2.00;;;0.67;;
83423;SDS011;73355;49.044;8.686;2024-03-23T14:08:06;2.15;;;0.57;;
83423;SDS011;73355;49.044;8.686;2024-03-23T14:10:35;1.35;;;0.32;;
83423;SDS011;73355;49.044;8.686;2024-03-23T14:13:02;1.52;;;0.45;;
83423;SDS011;73355;49.044;8.686;2024-03-23T14:15:36;1.88;;;0.55;;
83423;SDS011;73355;49.044;8.686;2024-03-23T14:18:02;2.30;;;0.68;;
83423;SDS011;73355;49.044;8.686;2024-03-23T14:20:27;2.65;;;0.40;;
83423;SDS011;73355;49.044;8.686;2024-03-23T14:22:53;1.00;;;0.60;;
83423;SDS011;73355;49.044;8.686;2024-03-23T14:25:18;1.77;;;0.60;;
83423;SDS011;73355;49.044;8.686;2024-03-23T14:27:44;1.83;;;0.38;;
83423;SDS011;73355;49.044;8.686;2024-03-23T14:30:15;3.00;;;0.40;;
83423;SDS011;73355;49.044;8.686;2024-03-23T14:32:40;0.52;;;0.30;;
83423;SDS011;73355;49.044;8.686;2024-03-23T14:35:06;0.57;;;0.35;;
83423;SDS011;73355;49.044;8.686;2024-03-23T14:37:35;1.13;;;0.20;;
83423;SDS011;73355;49.044;8.686;2024-03-23T14:42:47;0.80;;;0.20;;
83423;SDS011;73355;49.044;8.686;2024-03-23T14:45:12;1.03;;;0.37;;
83423;SDS011;73355;49.044;8.686;2024-03-23T14:47:39;1.77;;;0.40;;
83423;SDS011;73355;49.044;8.686;2024-03-23T14:50:40;1.00;;;0.30;;
83423;SDS011;73355;49.044;8.686;2024-03-23T14:56:33;0.90;;;0.20;;
83423;SDS011;73355;49.044;8.686;2024-03-23T14:58:59;1.13;;;0.30;;
83423;SDS011;73355;49.044;8.686;2024-03-23T15:01:37;0.65;;;0.25;;
83423;SDS011;73355;49.044;8.686;2024-03-23T15:04:02;1.60;;;0.20;;
83423;SDS011;73355;49.044;8.686;2024-03-23T15:06:28;1.08;;;0.20;;
83423;SDS011;73355;49.044;8.686;2024-03-23T15:08:54;2.17;;;0.43;;
83423;SDS011;73355;49.044;8.686;2024-03-23T15:11:19;0.47;;;0.27;;
83423;SDS011;73355;49.044;8.686;2024-03-23T15:13:45;1.02;;;0.30;;
83423;SDS011;73355;49.044;8.686;2024-03-23T15:16:16;1.02;;;0.32;;
83423;SDS011;73355;49.044;8.686;2024-03-23T15:18:45;1.48;;;0.52;;
83423;SDS011;73355;49.044;8.686;2024-03-23T15:21:10;1.30;;;0.60;;
83423;SDS011;73355;49.044;8.686;2024-03-23T15:23:37;1.67;;;0.60;;
83423;SDS011;73355;49.044;8.686;2024-03-23T15:26:03;1.27;;;0.43;;
83423;SDS011;73355;49.044;8.686;2024-03-23T15:28:40;0.63;;;0.30;;
83423;SDS011;73355;49.044;8.686;2024-03-23T15:31:24;0.52;;;0.45;;
83423;SDS011;73355;49.044;8.686;2024-03-23T15:33:50;1.75;;;0.60;;
83423;SDS011;73355;49.044;8.686;2024-03-23T15:36:16;0.93;;;0.50;;
83423;SDS011;73355;49.044;8.686;2024-03-23T15:38:48;0.52;;;0.30;;
83423;SDS011;73355;49.044;8.686;2024-03-23T15:41:14;0.52;;;0.40;;
83423;SDS011;73355;49.044;8.686;2024-03-23T15:43:39;6.78;;;0.63;;
83423;SDS011;73355;49.044;8.686;2024-03-23T15:46:05;1.27;;;0.40;;
83423;SDS011;73355;49.044;8.686;2024-03-23T15:48:35;1.02;;;0.30;;
83423;SDS011;73355;49.044;8.686;2024-03-23T15:51:10;2.80;;;0.60;;
83423;SDS011;73355;49.044;8.686;2024-03-23T15:53:35;1.67;;;0.63;;
83423;SDS011;73355;49.044;8.686;2024-03-23T15:56:01;2.63;;;0.50;;
83423;SDS011;73355;49.044;8.686;2024-03-23T15:58:28;1.52;;;0.68;;
83423;SDS011;73355;49.044;8.686;2024-03-23T16:00:58;1.33;;;0.60;;
83423;SDS011;73355;49.044;8.686;2024-03-23T16:03:37;2.55;;;0.65;;
83423;SDS011;73355;49.044;8.686;2024-03-23T16:06:03;1.25;;;0.50;;
83423;SDS011;73355;49.044;8.686;2024-03-23T16:08:29;1.75;;;0.47;;
83423;SDS011;73355;49.044;8.686;2024-03-23T16:10:59;2.28;;;0.50;;